sensor_id;sensor_type;location;lat;lon;timestamp;P1;durP1;ratioP1;P2;durP2;ratioP2
25381;SDS011;16307;42.896;20.874;2023-07-29T00:02:08;8.70;;;4.90;;
25381;SDS011;16307;42.896;20.874;2023-07-29T00:04:54;6.85;;;4.38;;
25381;SDS011;16307;42.896;20.874;2023-07-29T00:07:40;10.27;;;5.00;;
25381;SDS011;16307;42.896;20.874;2023-07-29T00:10:26;9.18;;;4.60;;
25381;SDS011;16307;42.896;20.874;2023-07-29T00:13:13;6.20;;;4.80;;
25381;SDS011;16307;42.896;20.874;2023-07-29T00:15:59;6.28;;;4.57;;
25381;SDS011;16307;42.896;20.874;2023-07-29T00:18:45;7.35;;;4.57;;
25381;SDS011;16307;42.896;20.874;2023-07-29T00:21:31;9.48;;;4.55;;
25381;SDS011;16307;42.896;20.874;2023-07-29T00:24:17;6.85;;;4.78;;
25381;SDS011;16307;42.896;20.874;2023-07-29T00:27:03;8.23;;;5.10;;
25381;SDS011;16307;42.896;20.874;2023-07-29T00:29:50;10.20;;;5.00;;
25381;SDS011;16307;42.896;20.874;2023-07-29T00:32:36;8.05;;;5.22;;
25381;SDS011;16307;42.896;20.874;2023-07-29T00:35:23;8.50;;;5.55;;
25381;SDS011;16307;42.896;20.874;2023-07-29T00:38:09;12.30;;;5.50;;
25381;SDS011;16307;42.896;20.874;2023-07-29T00:40:58;7.80;;;4.95;;
25381;SDS011;16307;42.896;20.874;2023-07-29T00:43:46;12.27;;;5.40;;
25381;SDS011;16307;42.896;20.874;2023-07-29T00:46:33;9.05;;;5.25;;
25381;SDS011;16307;42.896;20.874;2023-07-29T00:49:21;7.93;;;4.43;;
25381;SDS011;16307;42.896;20.874;2023-07-29T00:52:07;8.63;;;5.32;;
25381;SDS011;16307;42.896;20.874;2023-07-29T00:54:54;8.18;;;4.63;;
25381;SDS011;16307;42.896;20.874;2023-07-29T00:57:39;6.65;;;4.53;;
25381;SDS011;16307;42.896;20.874;2023-07-29T01:00:26;6.90;;;4.50;;
25381;SDS011;16307;42.896;20.874;2023-07-29T01:03:13;11.90;;;4.60;;
25381;SDS011;16307;42.896;20.874;2023-07-29T01:06:12;9.63;;;5.22;;
25381;SDS011;16307;42.896;20.874;2023-07-29T01:09:07;10.45;;;4.80;;
25381;SDS011;16307;42.896;20.874;2023-07-29T01:15:22;5.75;;;4.50;;
25381;SDS011;16307;42.896;20.874;2023-07-29T01:18:15;7.03;;;4.90;;
25381;SDS011;16307;42.896;20.874;2023-07-29T01:21:07;6.47;;;4.57;;
25381;SDS011;16307;42.896;20.874;2023-07-29T01:23:57;9.75;;;5.00;;
25381;SDS011;16307;42.896;20.874;2023-07-29T01:26:44;7.90;;;5.15;;
25381;SDS011;16307;42.896;20.874;2023-07-29T01:29:30;7.20;;;4.43;;
25381;SDS011;16307;42.896;20.874;2023-07-29T01:32:20;5.25;;;4.07;;
25381;SDS011;16307;42.896;20.874;2023-07-29T01:35:19;6.05;;;4.38;;
25381;SDS011;16307;42.896;20.874;2023-07-29T01:38:11;8.45;;;4.70;;
25381;SDS011;16307;42.896;20.874;2023-07-29T01:41:01;7.85;;;4.35;;
25381;SDS011;16307;42.896;20.874;2023-07-29T01:43:47;8.80;;;4.82;;
25381;SDS011;16307;42.896;20.874;2023-07-29T01:46:34;6.65;;;4.70;;
25381;SDS011;16307;42.896;20.874;2023-07-29T01:49:20;9.07;;;5.40;;
25381;SDS011;16307;42.896;20.874;2023-07-29T01:52:06;7.78;;;5.15;;
25381;SDS011;16307;42.896;20.874;2023-07-29T01:54:52;6.95;;;4.68;;
25381;SDS011;16307;42.896;20.874;2023-07-29T01:57:39;8.30;;;5.13;;
25381;SDS011;16307;42.896;20.874;2023-07-29T02:00:24;8.80;;;4.60;;
25381;SDS011;16307;42.896;20.874;2023-07-29T02:03:10;8.02;;;4.47;;
25381;SDS011;16307;42.896;20.874;2023-07-29T02:05:57;5.90;;;4.22;;
25381;SDS011;16307;42.896;20.874;2023-07-29T02:08:44;9.65;;;4.28;;
25381;SDS011;16307;42.896;20.874;2023-07-29T02:11:30;8.20;;;4.78;;
25381;SDS011;16307;42.896;20.874;2023-07-29T02:14:16;6.40;;;4.18;;
25381;SDS011;16307;42.896;20.874;2023-07-29T02:17:02;5.18;;;4.25;;
25381;SDS011;16307;42.896;20.874;2023-07-29T02:19:49;7.30;;;4.50;;
25381;SDS011;16307;42.896;20.874;2023-07-29T02:22:35;8.93;;;4.50;;
25381;SDS011;16307;42.896;20.874;2023-07-29T02:25:21;7.88;;;4.82;;
25381;SDS011;16307;42.896;20.874;2023-07-29T02:28:07;7.65;;;4.50;;
25381;SDS011;16307;42.896;20.874;2023-07-29T02:34:04;7.53;;;4.32;;
25381;SDS011;16307;42.896;20.874;2023-07-29T02:36:50;7.18;;;4.10;;
25381;SDS011;16307;42.896;20.874;2023-07-29T02:39:36;9.65;;;4.68;;
25381;SDS011;16307;42.896;20.874;2023-07-29T02:42:23;7.95;;;4.47;;
25381;SDS011;16307;42.896;20.874;2023-07-29T02:45:09;4.88;;;3.90;;
25381;SDS011;16307;42.896;20.874;2023-07-29T02:47:56;7.38;;;4.15;;
25381;SDS011;16307;42.896;20.874;2023-07-29T02:50:42;5.50;;;4.05;;
25381;SDS011;16307;42.896;20.874;2023-07-29T02:53:29;6.00;;;4.30;;
25381;SDS011;16307;42.896;20.874;2023-07-29T02:56:15;7.95;;;3.95;;
25381;SDS011;16307;42.896;20.874;2023-07-29T02:59:01;8.35;;;4.60;;
25381;SDS011;16307;42.896;20.874;2023-07-29T03:01:48;6.00;;;3.80;;
25381;SDS011;16307;42.896;20.874;2023-07-29T03:04:35;6.22;;;3.88;;
25381;SDS011;16307;42.896;20.874;2023-07-29T03:07:21;6.20;;;4.20;;
25381;SDS011;16307;42.896;20.874;2023-07-29T03:10:07;6.45;;;3.90;;
25381;SDS011;16307;42.896;20.874;2023-07-29T03:12:54;6.82;;;4.30;;
25381;SDS011;16307;42.896;20.874;2023-07-29T03:15:41;7.45;;;4.20;;
25381;SDS011;16307;42.896;20.874;2023-07-29T03:18:27;5.05;;;3.95;;
25381;SDS011;16307;42.896;20.874;2023-07-29T03:21:13;9.00;;;4.43;;
25381;SDS011;16307;42.896;20.874;2023-07-29T03:23:59;8.75;;;4.75;;
25381;SDS011;16307;42.896;20.874;2023-07-29T03:26:46;6.95;;;4.00;;
25381;SDS011;16307;42.896;20.874;2023-07-29T03:29:32;7.88;;;4.75;;
25381;SDS011;16307;42.896;20.874;2023-07-29T03:32:18;9.13;;;4.50;;
25381;SDS011;16307;42.896;20.874;2023-07-29T03:35:04;9.68;;;4.80;;
25381;SDS011;16307;42.896;20.874;2023-07-29T03:37:50;6.72;;;3.88;;
25381;SDS011;16307;42.896;20.874;2023-07-29T03:40:37;8.57;;;4.82;;
25381;SDS011;16307;42.896;20.874;2023-07-29T03:43:24;8.55;;;5.25;;
25381;SDS011;16307;42.896;20.874;2023-07-29T03:46:13;10.95;;;4.90;;
25381;SDS011;16307;42.896;20.874;2023-07-29T03:49:04;11.40;;;5.22;;
25381;SDS011;16307;42.896;20.874;2023-07-29T03:51:50;11.05;;;5.00;;
25381;SDS011;16307;42.896;20.874;2023-07-29T03:54:36;7.18;;;4.25;;
25381;SDS011;16307;42.896;20.874;2023-07-29T03:57:22;8.82;;;4.93;;
25381;SDS011;16307;42.896;20.874;2023-07-29T04:00:08;9.35;;;4.97;;
25381;SDS011;16307;42.896;20.874;2023-07-29T04:03:06;10.13;;;4.65;;
25381;SDS011;16307;42.896;20.874;2023-07-29T04:05:52;6.25;;;4.05;;
25381;SDS011;16307;42.896;20.874;2023-07-29T04:08:38;8.10;;;4.88;;
25381;SDS011;16307;42.896;20.874;2023-07-29T04:11:24;8.02;;;4.45;;
25381;SDS011;16307;42.896;20.874;2023-07-29T04:14:11;8.55;;;4.82;;
25381;SDS011;16307;42.896;20.874;2023-07-29T04:16:57;7.93;;;5.10;;
25381;SDS011;16307;42.896;20.874;2023-07-29T04:19:43;9.13;;;6.03;;
25381;SDS011;16307;42.896;20.874;2023-07-29T04:22:29;9.82;;;5.57;;
25381;SDS011;16307;42.896;20.874;2023-07-29T04:25:15;10.07;;;5.25;;
25381;SDS011;16307;42.896;20.874;2023-07-29T04:28:01;9.70;;;5.22;;
25381;SDS011;16307;42.896;20.874;2023-07-29T04:30:49;11.07;;;5.85;;
25381;SDS011;16307;42.896;20.874;2023-07-29T04:33:35;10.02;;;5.75;;
25381;SDS011;16307;42.896;20.874;2023-07-29T04:36:22;11.13;;;6.43;;
25381;SDS011;16307;42.896;20.874;2023-07-29T04:39:08;9.63;;;5.25;;
25381;SDS011;16307;42.896;20.874;2023-07-29T04:41:54;11.05;;;6.35;;
25381;SDS011;16307;42.896;20.874;2023-07-29T04:44:40;11.73;;;6.38;;
25381;SDS011;16307;42.896;20.874;2023-07-29T04:47:27;8.13;;;5.30;;
25381;SDS011;16307;42.896;20.874;2023-07-29T04:50:13;13.35;;;5.72;;
25381;SDS011;16307;42.896;20.874;2023-07-29T04:53:00;9.48;;;5.03;;
25381;SDS011;16307;42.896;20.874;2023-07-29T04:55:45;8.52;;;5.05;;
25381;SDS011;16307;42.896;20.874;2023-07-29T04:58:32;9.95;;;5.47;;
25381;SDS011;16307;42.896;20.874;2023-07-29T05:01:21;7.45;;;5.10;;
25381;SDS011;16307;42.896;20.874;2023-07-29T05:04:07;8.55;;;5.20;;
25381;SDS011;16307;42.896;20.874;2023-07-29T05:06:53;7.90;;;4.63;;
25381;SDS011;16307;42.896;20.874;2023-07-29T05:09:39;7.50;;;5.00;;
25381;SDS011;16307;42.896;20.874;2023-07-29T05:12:25;9.45;;;4.95;;
25381;SDS011;16307;42.896;20.874;2023-07-29T05:15:11;7.80;;;4.70;;
25381;SDS011;16307;42.896;20.874;2023-07-29T05:17:57;7.13;;;4.50;;
25381;SDS011;16307;42.896;20.874;2023-07-29T05:20:43;8.18;;;5.30;;
25381;SDS011;16307;42.896;20.874;2023-07-29T05:23:29;8.02;;;5.40;;
25381;SDS011;16307;42.896;20.874;2023-07-29T05:26:15;8.25;;;4.13;;
25381;SDS011;16307;42.896;20.874;2023-07-29T05:29:01;9.85;;;4.93;;
25381;SDS011;16307;42.896;20.874;2023-07-29T05:31:47;7.47;;;4.47;;
25381;SDS011;16307;42.896;20.874;2023-07-29T05:34:34;10.27;;;4.60;;
25381;SDS011;16307;42.896;20.874;2023-07-29T05:37:20;8.88;;;5.10;;
25381;SDS011;16307;42.896;20.874;2023-07-29T05:40:06;9.32;;;4.97;;
25381;SDS011;16307;42.896;20.874;2023-07-29T05:42:52;8.80;;;5.13;;
25381;SDS011;16307;42.896;20.874;2023-07-29T05:45:39;9.60;;;5.03;;
25381;SDS011;16307;42.896;20.874;2023-07-29T05:48:25;9.27;;;5.18;;
25381;SDS011;16307;42.896;20.874;2023-07-29T05:51:11;9.50;;;5.45;;
25381;SDS011;16307;42.896;20.874;2023-07-29T05:53:58;10.10;;;5.47;;
25381;SDS011;16307;42.896;20.874;2023-07-29T05:56:44;10.95;;;6.22;;
25381;SDS011;16307;42.896;20.874;2023-07-29T05:59:31;11.52;;;5.82;;
25381;SDS011;16307;42.896;20.874;2023-07-29T06:02:17;16.30;;;10.30;;
25381;SDS011;16307;42.896;20.874;2023-07-29T06:05:03;10.38;;;5.78;;
25381;SDS011;16307;42.896;20.874;2023-07-29T06:07:51;10.95;;;5.25;;
25381;SDS011;16307;42.896;20.874;2023-07-29T06:10:37;9.90;;;5.35;;
25381;SDS011;16307;42.896;20.874;2023-07-29T06:13:23;7.38;;;5.28;;
25381;SDS011;16307;42.896;20.874;2023-07-29T06:16:09;9.15;;;4.20;;
25381;SDS011;16307;42.896;20.874;2023-07-29T06:18:56;8.35;;;4.53;;
25381;SDS011;16307;42.896;20.874;2023-07-29T06:21:43;7.88;;;4.93;;
25381;SDS011;16307;42.896;20.874;2023-07-29T06:24:29;6.05;;;3.45;;
25381;SDS011;16307;42.896;20.874;2023-07-29T06:27:15;7.20;;;3.75;;
25381;SDS011;16307;42.896;20.874;2023-07-29T06:30:01;6.68;;;4.07;;
25381;SDS011;16307;42.896;20.874;2023-07-29T06:32:47;8.07;;;4.40;;
25381;SDS011;16307;42.896;20.874;2023-07-29T06:35:33;6.15;;;3.75;;
25381;SDS011;16307;42.896;20.874;2023-07-29T06:38:19;9.88;;;5.78;;
25381;SDS011;16307;42.896;20.874;2023-07-29T06:41:07;16.20;;;9.00;;
25381;SDS011;16307;42.896;20.874;2023-07-29T06:43:57;15.95;;;10.52;;
25381;SDS011;16307;42.896;20.874;2023-07-29T06:46:43;11.55;;;5.82;;
25381;SDS011;16307;42.896;20.874;2023-07-29T06:49:29;9.95;;;5.75;;
25381;SDS011;16307;42.896;20.874;2023-07-29T06:52:15;11.63;;;7.28;;
25381;SDS011;16307;42.896;20.874;2023-07-29T06:55:01;8.70;;;4.60;;
25381;SDS011;16307;42.896;20.874;2023-07-29T06:57:47;6.13;;;3.83;;
25381;SDS011;16307;42.896;20.874;2023-07-29T07:00:33;5.43;;;3.47;;
25381;SDS011;16307;42.896;20.874;2023-07-29T07:03:19;7.65;;;4.00;;
25381;SDS011;16307;42.896;20.874;2023-07-29T07:06:05;6.80;;;4.15;;
25381;SDS011;16307;42.896;20.874;2023-07-29T07:08:52;8.68;;;4.18;;
25381;SDS011;16307;42.896;20.874;2023-07-29T07:11:38;6.38;;;3.72;;
25381;SDS011;16307;42.896;20.874;2023-07-29T07:14:24;10.43;;;6.03;;
25381;SDS011;16307;42.896;20.874;2023-07-29T07:17:10;10.65;;;7.22;;
25381;SDS011;16307;42.896;20.874;2023-07-29T07:19:58;7.68;;;4.75;;
25381;SDS011;16307;42.896;20.874;2023-07-29T07:22:44;4.57;;;3.58;;
25381;SDS011;16307;42.896;20.874;2023-07-29T07:25:31;18.63;;;8.10;;
25381;SDS011;16307;42.896;20.874;2023-07-29T07:28:17;10.70;;;4.57;;
25381;SDS011;16307;42.896;20.874;2023-07-29T07:31:03;16.50;;;7.07;;
25381;SDS011;16307;42.896;20.874;2023-07-29T07:33:49;13.43;;;5.45;;
25381;SDS011;16307;42.896;20.874;2023-07-29T07:36:37;7.65;;;4.57;;
25381;SDS011;16307;42.896;20.874;2023-07-29T07:39:23;9.15;;;5.32;;
25381;SDS011;16307;42.896;20.874;2023-07-29T07:42:09;8.40;;;5.35;;
25381;SDS011;16307;42.896;20.874;2023-07-29T07:44:55;12.40;;;6.28;;
25381;SDS011;16307;42.896;20.874;2023-07-29T07:47:41;7.57;;;4.80;;
25381;SDS011;16307;42.896;20.874;2023-07-29T07:50:29;6.25;;;3.60;;
25381;SDS011;16307;42.896;20.874;2023-07-29T07:53:16;8.52;;;5.50;;
25381;SDS011;16307;42.896;20.874;2023-07-29T07:56:02;6.55;;;3.75;;
25381;SDS011;16307;42.896;20.874;2023-07-29T07:58:49;4.97;;;3.33;;
25381;SDS011;16307;42.896;20.874;2023-07-29T08:01:35;8.77;;;5.47;;
25381;SDS011;16307;42.896;20.874;2023-07-29T08:04:22;14.57;;;8.40;;
25381;SDS011;16307;42.896;20.874;2023-07-29T08:07:08;7.38;;;5.03;;
25381;SDS011;16307;42.896;20.874;2023-07-29T08:09:54;8.90;;;4.03;;
25381;SDS011;16307;42.896;20.874;2023-07-29T08:12:40;10.02;;;4.50;;
25381;SDS011;16307;42.896;20.874;2023-07-29T08:15:27;7.53;;;4.03;;
25381;SDS011;16307;42.896;20.874;2023-07-29T08:18:34;7.25;;;3.88;;
25381;SDS011;16307;42.896;20.874;2023-07-29T08:21:27;8.40;;;3.80;;
25381;SDS011;16307;42.896;20.874;2023-07-29T08:24:13;6.35;;;3.90;;
25381;SDS011;16307;42.896;20.874;2023-07-29T08:26:59;9.88;;;4.47;;
25381;SDS011;16307;42.896;20.874;2023-07-29T08:30:06;10.18;;;3.80;;
25381;SDS011;16307;42.896;20.874;2023-07-29T08:32:52;7.80;;;3.40;;
25381;SDS011;16307;42.896;20.874;2023-07-29T08:35:38;9.95;;;5.93;;
25381;SDS011;16307;42.896;20.874;2023-07-29T08:38:25;9.52;;;4.30;;
25381;SDS011;16307;42.896;20.874;2023-07-29T08:41:16;8.45;;;4.30;;
25381;SDS011;16307;42.896;20.874;2023-07-29T08:47:12;8.23;;;4.15;;
25381;SDS011;16307;42.896;20.874;2023-07-29T08:49:59;5.70;;;3.50;;
25381;SDS011;16307;42.896;20.874;2023-07-29T08:52:47;7.75;;;3.70;;
25381;SDS011;16307;42.896;20.874;2023-07-29T08:55:34;12.52;;;3.60;;
25381;SDS011;16307;42.896;20.874;2023-07-29T08:58:20;6.93;;;3.65;;
25381;SDS011;16307;42.896;20.874;2023-07-29T09:01:06;9.40;;;3.90;;
25381;SDS011;16307;42.896;20.874;2023-07-29T09:03:53;10.13;;;3.88;;
25381;SDS011;16307;42.896;20.874;2023-07-29T09:06:39;8.38;;;3.25;;
25381;SDS011;16307;42.896;20.874;2023-07-29T09:09:29;6.40;;;3.35;;
25381;SDS011;16307;42.896;20.874;2023-07-29T09:12:15;8.45;;;3.63;;
25381;SDS011;16307;42.896;20.874;2023-07-29T09:15:01;7.13;;;3.67;;
25381;SDS011;16307;42.896;20.874;2023-07-29T09:17:47;6.00;;;3.80;;
25381;SDS011;16307;42.896;20.874;2023-07-29T09:20:33;5.97;;;3.63;;
25381;SDS011;16307;42.896;20.874;2023-07-29T09:23:19;5.30;;;3.55;;
25381;SDS011;16307;42.896;20.874;2023-07-29T09:26:05;8.85;;;2.90;;
25381;SDS011;16307;42.896;20.874;2023-07-29T09:28:54;6.20;;;3.67;;
25381;SDS011;16307;42.896;20.874;2023-07-29T09:31:44;7.03;;;3.45;;
25381;SDS011;16307;42.896;20.874;2023-07-29T09:34:30;8.18;;;3.50;;
25381;SDS011;16307;42.896;20.874;2023-07-29T09:37:16;5.70;;;3.55;;
25381;SDS011;16307;42.896;20.874;2023-07-29T09:40:03;6.78;;;3.40;;
25381;SDS011;16307;42.896;20.874;2023-07-29T09:42:53;4.88;;;3.17;;
25381;SDS011;16307;42.896;20.874;2023-07-29T09:45:40;4.72;;;3.13;;
25381;SDS011;16307;42.896;20.874;2023-07-29T09:48:26;5.80;;;2.85;;
25381;SDS011;16307;42.896;20.874;2023-07-29T09:51:14;6.90;;;2.95;;
25381;SDS011;16307;42.896;20.874;2023-07-29T09:54:02;5.93;;;3.20;;
25381;SDS011;16307;42.896;20.874;2023-07-29T09:56:48;5.85;;;3.30;;
25381;SDS011;16307;42.896;20.874;2023-07-29T09:59:34;6.93;;;3.40;;
25381;SDS011;16307;42.896;20.874;2023-07-29T10:02:20;6.53;;;3.55;;
25381;SDS011;16307;42.896;20.874;2023-07-29T10:05:07;6.70;;;4.22;;
25381;SDS011;16307;42.896;20.874;2023-07-29T10:07:55;7.40;;;3.40;;
25381;SDS011;16307;42.896;20.874;2023-07-29T10:10:41;6.97;;;3.60;;
25381;SDS011;16307;42.896;20.874;2023-07-29T10:13:28;10.77;;;3.95;;
25381;SDS011;16307;42.896;20.874;2023-07-29T10:16:14;7.97;;;3.72;;
25381;SDS011;16307;42.896;20.874;2023-07-29T10:19:00;5.00;;;3.30;;
25381;SDS011;16307;42.896;20.874;2023-07-29T10:21:47;10.45;;;3.33;;
25381;SDS011;16307;42.896;20.874;2023-07-29T10:24:35;5.22;;;3.25;;
25381;SDS011;16307;42.896;20.874;2023-07-29T10:27:25;6.22;;;3.60;;
25381;SDS011;16307;42.896;20.874;2023-07-29T10:30:13;5.50;;;3.25;;
25381;SDS011;16307;42.896;20.874;2023-07-29T10:33:02;6.22;;;3.45;;
25381;SDS011;16307;42.896;20.874;2023-07-29T10:35:50;16.05;;;3.60;;
25381;SDS011;16307;42.896;20.874;2023-07-29T10:38:38;4.78;;;3.05;;
25381;SDS011;16307;42.896;20.874;2023-07-29T10:41:37;7.22;;;2.97;;
25381;SDS011;16307;42.896;20.874;2023-07-29T10:44:50;8.32;;;4.28;;
25381;SDS011;16307;42.896;20.874;2023-07-29T10:47:37;6.25;;;3.65;;
25381;SDS011;16307;42.896;20.874;2023-07-29T10:50:23;8.13;;;3.50;;
25381;SDS011;16307;42.896;20.874;2023-07-29T10:53:09;5.93;;;3.75;;
25381;SDS011;16307;42.896;20.874;2023-07-29T10:55:55;9.05;;;5.07;;
25381;SDS011;16307;42.896;20.874;2023-07-29T10:58:41;10.50;;;3.72;;
25381;SDS011;16307;42.896;20.874;2023-07-29T11:01:31;5.25;;;3.00;;
25381;SDS011;16307;42.896;20.874;2023-07-29T11:09:59;4.60;;;3.30;;
25381;SDS011;16307;42.896;20.874;2023-07-29T11:12:48;6.70;;;3.78;;
25381;SDS011;16307;42.896;20.874;2023-07-29T11:15:37;5.65;;;3.60;;
25381;SDS011;16307;42.896;20.874;2023-07-29T11:18:28;6.03;;;3.10;;
25381;SDS011;16307;42.896;20.874;2023-07-29T11:21:15;5.23;;;3.60;;
25381;SDS011;16307;42.896;20.874;2023-07-29T11:24:02;10.98;;;5.43;;
25381;SDS011;16307;42.896;20.874;2023-07-29T11:26:49;8.95;;;4.68;;
25381;SDS011;16307;42.896;20.874;2023-07-29T11:29:35;9.27;;;4.82;;
25381;SDS011;16307;42.896;20.874;2023-07-29T11:32:21;5.25;;;4.05;;
25381;SDS011;16307;42.896;20.874;2023-07-29T11:38:03;5.20;;;3.58;;
25381;SDS011;16307;42.896;20.874;2023-07-29T11:40:59;4.85;;;3.40;;
25381;SDS011;16307;42.896;20.874;2023-07-29T11:43:46;14.02;;;8.13;;
25381;SDS011;16307;42.896;20.874;2023-07-29T11:46:34;6.55;;;3.10;;
25381;SDS011;16307;42.896;20.874;2023-07-29T11:49:20;6.82;;;4.57;;
25381;SDS011;16307;42.896;20.874;2023-07-29T11:52:07;3.65;;;3.20;;
25381;SDS011;16307;42.896;20.874;2023-07-29T11:54:54;4.22;;;3.08;;
25381;SDS011;16307;42.896;20.874;2023-07-29T11:57:41;7.43;;;4.00;;
25381;SDS011;16307;42.896;20.874;2023-07-29T12:00:28;9.30;;;4.10;;
25381;SDS011;16307;42.896;20.874;2023-07-29T12:03:14;7.75;;;4.25;;
25381;SDS011;16307;42.896;20.874;2023-07-29T12:06:04;8.07;;;4.97;;
25381;SDS011;16307;42.896;20.874;2023-07-29T12:08:50;9.43;;;4.53;;
25381;SDS011;16307;42.896;20.874;2023-07-29T12:11:39;6.03;;;3.00;;
25381;SDS011;16307;42.896;20.874;2023-07-29T12:14:26;3.83;;;2.90;;
25381;SDS011;16307;42.896;20.874;2023-07-29T12:17:14;4.80;;;2.70;;
25381;SDS011;16307;42.896;20.874;2023-07-29T12:20:01;6.53;;;2.95;;
25381;SDS011;16307;42.896;20.874;2023-07-29T12:22:57;4.15;;;3.20;;
25381;SDS011;16307;42.896;20.874;2023-07-29T12:25:44;5.60;;;3.00;;
25381;SDS011;16307;42.896;20.874;2023-07-29T12:28:30;12.25;;;2.90;;
25381;SDS011;16307;42.896;20.874;2023-07-29T12:31:16;4.97;;;3.15;;
25381;SDS011;16307;42.896;20.874;2023-07-29T12:34:02;4.50;;;2.60;;
25381;SDS011;16307;42.896;20.874;2023-07-29T12:36:49;7.70;;;3.60;;
25381;SDS011;16307;42.896;20.874;2023-07-29T12:39:39;6.35;;;3.40;;
25381;SDS011;16307;42.896;20.874;2023-07-29T12:42:27;5.25;;;3.47;;
25381;SDS011;16307;42.896;20.874;2023-07-29T12:45:14;6.50;;;3.05;;
25381;SDS011;16307;42.896;20.874;2023-07-29T12:48:01;7.45;;;3.30;;
25381;SDS011;16307;42.896;20.874;2023-07-29T12:50:47;5.72;;;2.95;;
25381;SDS011;16307;42.896;20.874;2023-07-29T12:53:33;7.43;;;2.83;;
25381;SDS011;16307;42.896;20.874;2023-07-29T12:56:20;6.07;;;3.10;;
25381;SDS011;16307;42.896;20.874;2023-07-29T12:59:06;5.55;;;3.03;;
25381;SDS011;16307;42.896;20.874;2023-07-29T13:01:52;5.63;;;2.50;;
25381;SDS011;16307;42.896;20.874;2023-07-29T13:04:38;4.28;;;2.45;;
25381;SDS011;16307;42.896;20.874;2023-07-29T13:07:24;4.43;;;3.30;;
25381;SDS011;16307;42.896;20.874;2023-07-29T13:10:11;7.82;;;4.13;;
25381;SDS011;16307;42.896;20.874;2023-07-29T13:12:57;7.00;;;4.55;;
25381;SDS011;16307;42.896;20.874;2023-07-29T13:15:44;6.18;;;3.90;;
25381;SDS011;16307;42.896;20.874;2023-07-29T13:18:30;5.78;;;2.65;;
25381;SDS011;16307;42.896;20.874;2023-07-29T13:21:16;7.57;;;3.97;;
25381;SDS011;16307;42.896;20.874;2023-07-29T13:24:02;3.58;;;2.50;;
25381;SDS011;16307;42.896;20.874;2023-07-29T13:26:49;5.35;;;2.60;;
25381;SDS011;16307;42.896;20.874;2023-07-29T13:29:35;5.38;;;3.40;;
25381;SDS011;16307;42.896;20.874;2023-07-29T13:32:21;6.88;;;3.17;;
25381;SDS011;16307;42.896;20.874;2023-07-29T13:35:07;9.05;;;3.00;;
25381;SDS011;16307;42.896;20.874;2023-07-29T13:37:54;7.88;;;3.63;;
25381;SDS011;16307;42.896;20.874;2023-07-29T13:40:40;7.18;;;3.35;;
25381;SDS011;16307;42.896;20.874;2023-07-29T13:43:26;8.25;;;2.83;;
25381;SDS011;16307;42.896;20.874;2023-07-29T13:46:12;5.82;;;3.47;;
25381;SDS011;16307;42.896;20.874;2023-07-29T13:48:58;5.88;;;3.30;;
25381;SDS011;16307;42.896;20.874;2023-07-29T13:51:44;5.07;;;3.20;;
25381;SDS011;16307;42.896;20.874;2023-07-29T13:54:30;10.23;;;3.10;;
25381;SDS011;16307;42.896;20.874;2023-07-29T13:57:16;3.13;;;2.70;;
25381;SDS011;16307;42.896;20.874;2023-07-29T14:00:02;3.97;;;3.10;;
25381;SDS011;16307;42.896;20.874;2023-07-29T14:02:56;4.63;;;3.20;;
25381;SDS011;16307;42.896;20.874;2023-07-29T14:05:42;4.68;;;3.40;;
25381;SDS011;16307;42.896;20.874;2023-07-29T14:08:28;7.63;;;4.28;;
25381;SDS011;16307;42.896;20.874;2023-07-29T14:11:14;9.65;;;5.97;;
25381;SDS011;16307;42.896;20.874;2023-07-29T14:14:00;8.80;;;5.20;;
25381;SDS011;16307;42.896;20.874;2023-07-29T14:16:46;8.75;;;5.28;;
25381;SDS011;16307;42.896;20.874;2023-07-29T14:19:32;9.93;;;5.50;;
25381;SDS011;16307;42.896;20.874;2023-07-29T14:22:23;9.07;;;5.38;;
25381;SDS011;16307;42.896;20.874;2023-07-29T14:25:09;10.40;;;6.53;;
25381;SDS011;16307;42.896;20.874;2023-07-29T14:27:55;10.57;;;6.57;;
25381;SDS011;16307;42.896;20.874;2023-07-29T14:30:41;9.70;;;6.20;;
25381;SDS011;16307;42.896;20.874;2023-07-29T14:33:28;11.18;;;5.82;;
25381;SDS011;16307;42.896;20.874;2023-07-29T14:36:13;10.68;;;6.47;;
25381;SDS011;16307;42.896;20.874;2023-07-29T14:39:00;12.82;;;5.75;;
25381;SDS011;16307;42.896;20.874;2023-07-29T14:41:46;10.95;;;5.90;;
25381;SDS011;16307;42.896;20.874;2023-07-29T14:44:32;8.40;;;5.50;;
25381;SDS011;16307;42.896;20.874;2023-07-29T14:47:18;7.93;;;4.63;;
25381;SDS011;16307;42.896;20.874;2023-07-29T14:50:04;6.95;;;4.47;;
25381;SDS011;16307;42.896;20.874;2023-07-29T14:52:51;7.60;;;4.47;;
25381;SDS011;16307;42.896;20.874;2023-07-29T14:55:37;7.20;;;4.70;;
25381;SDS011;16307;42.896;20.874;2023-07-29T14:58:23;12.50;;;4.57;;
25381;SDS011;16307;42.896;20.874;2023-07-29T15:01:10;5.72;;;3.58;;
25381;SDS011;16307;42.896;20.874;2023-07-29T15:03:56;7.43;;;3.25;;
25381;SDS011;16307;42.896;20.874;2023-07-29T15:06:43;6.90;;;3.20;;
25381;SDS011;16307;42.896;20.874;2023-07-29T15:09:29;4.15;;;2.80;;
25381;SDS011;16307;42.896;20.874;2023-07-29T15:12:15;7.40;;;3.30;;
25381;SDS011;16307;42.896;20.874;2023-07-29T15:15:01;4.88;;;2.90;;
25381;SDS011;16307;42.896;20.874;2023-07-29T15:17:48;4.05;;;2.92;;
25381;SDS011;16307;42.896;20.874;2023-07-29T15:20:34;5.15;;;3.45;;
25381;SDS011;16307;42.896;20.874;2023-07-29T15:23:20;7.25;;;4.40;;
25381;SDS011;16307;42.896;20.874;2023-07-29T15:26:06;7.03;;;3.83;;
25381;SDS011;16307;42.896;20.874;2023-07-29T15:28:52;6.25;;;3.40;;
25381;SDS011;16307;42.896;20.874;2023-07-29T15:31:39;4.45;;;2.80;;
25381;SDS011;16307;42.896;20.874;2023-07-29T15:34:26;4.72;;;3.40;;
25381;SDS011;16307;42.896;20.874;2023-07-29T15:37:13;4.95;;;3.45;;
25381;SDS011;16307;42.896;20.874;2023-07-29T15:39:59;4.93;;;2.60;;
25381;SDS011;16307;42.896;20.874;2023-07-29T15:42:45;5.30;;;2.70;;
25381;SDS011;16307;42.896;20.874;2023-07-29T15:45:31;6.28;;;2.88;;
25381;SDS011;16307;42.896;20.874;2023-07-29T15:48:17;6.47;;;3.20;;
25381;SDS011;16307;42.896;20.874;2023-07-29T15:51:03;5.60;;;3.33;;
25381;SDS011;16307;42.896;20.874;2023-07-29T15:53:51;4.32;;;3.10;;
25381;SDS011;16307;42.896;20.874;2023-07-29T15:56:37;5.28;;;2.88;;
25381;SDS011;16307;42.896;20.874;2023-07-29T15:59:24;3.38;;;2.70;;
25381;SDS011;16307;42.896;20.874;2023-07-29T16:02:11;3.92;;;2.63;;
25381;SDS011;16307;42.896;20.874;2023-07-29T16:04:58;8.93;;;2.90;;
25381;SDS011;16307;42.896;20.874;2023-07-29T16:07:44;3.28;;;2.45;;
25381;SDS011;16307;42.896;20.874;2023-07-29T16:10:30;5.57;;;2.85;;
25381;SDS011;16307;42.896;20.874;2023-07-29T16:13:16;5.78;;;2.53;;
25381;SDS011;16307;42.896;20.874;2023-07-29T16:16:04;5.65;;;2.97;;
25381;SDS011;16307;42.896;20.874;2023-07-29T16:18:50;6.25;;;2.63;;
25381;SDS011;16307;42.896;20.874;2023-07-29T16:21:36;3.92;;;2.47;;
25381;SDS011;16307;42.896;20.874;2023-07-29T16:24:22;2.60;;;2.00;;
25381;SDS011;16307;42.896;20.874;2023-07-29T16:27:08;3.90;;;2.90;;
25381;SDS011;16307;42.896;20.874;2023-07-29T16:29:54;6.10;;;3.00;;
25381;SDS011;16307;42.896;20.874;2023-07-29T16:32:40;5.80;;;2.88;;
25381;SDS011;16307;42.896;20.874;2023-07-29T16:35:27;4.45;;;3.08;;
25381;SDS011;16307;42.896;20.874;2023-07-29T16:38:13;5.25;;;2.80;;
25381;SDS011;16307;42.896;20.874;2023-07-29T16:40:59;4.80;;;2.70;;
25381;SDS011;16307;42.896;20.874;2023-07-29T16:44:05;4.68;;;2.50;;
25381;SDS011;16307;42.896;20.874;2023-07-29T16:46:51;4.57;;;2.35;;
25381;SDS011;16307;42.896;20.874;2023-07-29T16:49:37;7.28;;;2.30;;